Time;durP1;ratioP1;P1;durP2;ratioP2;P2;SDS_P1;SDS_P2;PMS_P1;PMS_P2;Temp;Humidity;BMP_temperature;BMP_pressure;BME280_temperature;BME280_humidity;BME280_pressure;Samples;Min_cycle;Max_cycle;Signal;HPM_P1;HPM_P2
2022/06/15 00:01:24;;;;;;;4.50;1.55;;;;;;;13.56;63.79;101814.19;5043029;28;20393;-78
2022/06/15 00:03:53;;;;;;;2.58;1.40;;;;;;;13.50;63.96;101817.88;5039185;28;20546;-77
2022/06/15 00:06:26;;;;;;;3.15;1.50;;;;;;;13.47;63.91;101818.00;5042194;28;20131;-77
2022/06/15 00:08:57;;;;;;;6.15;1.75;;;;;;;13.48;64.06;101814.44;5042623;28;20105;-78
2022/06/15 00:11:45;;;;;;;4.07;1.48;;;;;;;13.47;64.19;101818.84;5039733;28;20088;-78
2022/06/15 00:14:21;;;;;;;2.53;1.40;;;;;;;13.43;64.21;101811.88;5033241;28;20058;-77
2022/06/15 00:16:49;;;;;;;6.63;2.10;;;;;;;13.40;64.35;101805.78;5047545;28;20037;-77
2022/06/15 00:19:18;;;;;;;4.43;1.85;;;;;;;13.39;64.42;101814.63;5039858;28;20046;-78
2022/06/15 00:21:45;;;;;;;3.20;1.83;;;;;;;13.33;64.58;101807.69;5036833;28;20085;-78
2022/06/15 00:24:13;;;;;;;3.33;1.70;;;;;;;13.30;64.85;101806.00;5038316;28;20537;-79
2022/06/15 00:26:42;;;;;;;3.85;1.70;;;;;;;13.28;64.73;101807.81;5035861;28;20054;-79
2022/06/15 00:29:10;;;;;;;3.53;1.83;;;;;;;13.27;64.83;101805.22;5041602;28;20859;-78
2022/06/15 00:31:38;;;;;;;3.70;1.55;;;;;;;13.24;65.00;101800.88;5049470;28;20125;-78
2022/06/15 00:34:06;;;;;;;4.93;1.70;;;;;;;13.23;65.05;101799.16;5047081;28;20053;-80
2022/06/15 00:36:33;;;;;;;6.00;1.63;;;;;;;13.18;65.35;101803.69;5040379;28;20133;-78
2022/06/15 00:39:03;;;;;;;3.72;1.60;;;;;;;13.15;65.37;101798.47;5050830;28;20123;-78
2022/06/15 00:41:37;;;;;;;4.78;1.80;;;;;;;13.12;65.75;101796.78;5046804;28;20132;-79
2022/06/15 00:44:23;;;;;;;6.85;1.98;;;;;;;13.11;65.72;101800.34;5040638;28;20076;-79
2022/06/15 00:47:00;;;;;;;3.63;1.73;;;;;;;13.09;65.76;101803.91;5049596;28;20042;-78
2022/06/15 00:49:36;;;;;;;3.97;1.80;;;;;;;13.06;66.23;101810.16;5039057;28;20050;-78
2022/06/15 00:52:13;;;;;;;4.22;2.00;;;;;;;13.02;66.26;101804.09;5034235;28;20533;-77
2022/06/15 00:54:45;;;;;;;6.63;2.08;;;;;;;12.99;66.51;101796.22;5036422;28;20049;-78
2022/06/15 00:57:13;;;;;;;5.40;2.08;;;;;;;13.00;66.54;101790.00;5040688;28;20042;-77
2022/06/15 00:59:55;;;;;;;5.18;2.03;;;;;;;13.00;66.45;101789.16;5034741;28;20040;-78
2022/06/15 01:02:25;;;;;;;4.43;2.20;;;;;;;12.99;66.54;101788.28;5037074;28;20038;-77
2022/06/15 01:05:08;;;;;;;5.70;2.03;;;;;;;12.97;66.74;101784.78;5046504;28;20044;-77
2022/06/15 01:08:15;;;;;;;5.00;2.10;;;;;;;12.89;66.66;101792.06;5047321;28;20045;-78
2022/06/15 01:11:21;;;;;;;9.25;2.00;;;;;;;12.85;67.11;101799.19;5033265;28;20133;-77
2022/06/15 01:14:37;;;;;;;4.97;2.28;;;;;;;12.78;67.49;101800.28;5054211;28;20069;-78
2022/06/15 01:17:38;;;;;;;6.68;2.28;;;;;;;12.72;67.61;101792.47;5038834;28;20132;-76
2022/06/15 01:20:16;;;;;;;7.00;2.05;;;;;;;12.69;67.73;101795.19;5035448;28;20100;-77
2022/06/15 01:23:26;;;;;;;5.43;2.42;;;;;;;12.67;68.07;101799.66;5045642;28;20041;-78
2022/06/15 01:26:24;;;;;;;5.63;2.20;;;;;;;12.61;68.38;101798.03;5040119;28;20386;-77
2022/06/15 01:28:58;;;;;;;9.15;2.50;;;;;;;12.59;68.62;101794.53;5034901;28;20132;-78
2022/06/15 01:31:56;;;;;;;4.82;2.40;;;;;;;12.56;68.84;101797.28;5039083;28;20490;-78
2022/06/15 01:35:08;;;;;;;5.93;2.83;;;;;;;12.49;69.06;101793.91;5042214;28;20098;-78
2022/06/15 01:37:51;;;;;;;6.80;2.00;;;;;;;12.47;69.15;101795.69;5044035;28;20085;-78
2022/06/15 01:40:32;;;;;;;7.88;2.63;;;;;;;12.42;69.22;101792.28;5035145;28;20100;-76
2022/06/15 01:43:09;;;;;;;7.18;2.42;;;;;;;12.38;69.37;101788.84;5037140;28;20042;-77
2022/06/15 01:45:39;;;;;;;5.22;2.47;;;;;;;12.35;69.32;101788.94;5035428;28;20045;-79
2022/06/15 01:48:12;;;;;;;5.07;2.15;;;;;;;12.31;69.70;101779.31;5049388;28;20046;-78
2022/06/15 01:50:51;;;;;;;;;;;;;;;12.28;69.48;101784.66;5031994;28;20038;-78
2022/06/15 01:53:25;;;;;;;4.93;2.35;;;;;;;12.23;69.95;101782.13;5041497;28;19972;-78
2022/06/15 01:56:04;;;;;;;4.45;2.28;;;;;;;12.16;69.89;101780.53;5040611;28;20045;-76
2022/06/15 01:58:38;;;;;;;4.95;2.67;;;;;;;12.08;70.59;101775.41;5039729;28;20038;-79
2022/06/15 02:01:20;;;;;;;6.22;2.80;;;;;;;12.03;70.78;101781.69;5049301;28;20037;-77
2022/06/15 02:04:01;;;;;;;4.43;2.47;;;;;;;11.98;70.85;101773.00;5034160;28;20049;-79
2022/06/15 02:06:58;;;;;;;6.68;2.70;;;;;;;11.94;71.35;101772.16;5036757;28;20045;-78
2022/06/15 02:09:49;;;;;;;4.05;2.53;;;;;;;11.91;71.26;101769.59;5054901;28;20049;-79
2022/06/15 02:12:28;;;;;;;4.60;2.50;;;;;;;11.90;71.43;101768.72;5039298;28;20487;-79
2022/06/15 02:14:59;;;;;;;7.03;2.97;;;;;;;11.89;71.34;101771.38;5042341;28;20054;-79
2022/06/15 02:17:34;;;;;;;8.73;2.80;;;;;;;11.88;71.45;101765.25;5036560;28;20128;-78
2022/06/15 02:20:14;;;;;;;8.10;3.03;;;;;;;11.89;71.40;101766.97;5037663;28;20057;-79
2022/06/15 02:22:45;;;;;;;6.25;2.90;;;;;;;11.83;71.48;101761.81;5038739;28;20045;-78
2022/06/15 02:25:20;;;;;;;7.00;2.95;;;;;;;11.81;71.92;101766.25;5046225;28;20416;-79
2022/06/15 02:27:51;;;;;;;7.78;3.05;;;;;;;11.76;71.54;101763.69;5045469;28;20058;-77
2022/06/15 02:30:29;;;;;;;5.45;2.83;;;;;;;11.75;71.79;101767.25;5039963;28;20543;-78
2022/06/15 02:33:23;;;;;;;4.65;2.88;;;;;;;11.72;71.83;101762.03;5034072;28;20046;-78
2022/06/15 02:35:52;;;;;;;7.78;2.72;;;;;;;11.71;71.82;101762.06;5046012;28;20038;-78
2022/06/15 02:38:19;;;;;;;5.88;3.10;;;;;;;11.70;71.77;101766.47;5041100;28;20046;-78
2022/06/15 02:40:47;;;;;;;4.88;2.92;;;;;;;11.68;72.13;101755.06;5036600;28;20052;-79
2022/06/15 02:43:22;;;;;;;6.43;2.85;;;;;;;11.69;71.82;101755.97;5034307;28;20495;-78
2022/06/15 02:45:52;;;;;;;8.00;3.30;;;;;;;11.69;72.01;101761.25;5033325;28;20045;-78
2022/06/15 02:48:25;;;;;;;7.65;3.03;;;;;;;11.66;71.99;101759.50;5030674;28;20048;-77
2022/06/15 02:51:11;;;;;;;8.75;3.00;;;;;;;11.70;71.81;101752.41;5043060;28;20837;-78
2022/06/15 02:53:43;;;;;;;6.68;2.60;;;;;;;11.69;71.59;101748.88;5036924;28;20065;-79
2022/06/15 02:56:14;;;;;;;8.65;3.40;;;;;;;11.71;71.78;101751.50;5046202;28;20136;-80
2022/06/15 02:58:47;;;;;;;5.28;2.65;;;;;;;11.70;71.64;101749.78;5053113;28;20167;-80
2022/06/15 03:01:16;;;;;;;9.10;3.13;;;;;;;11.76;71.46;101752.28;5058995;28;20050;-80
2022/06/15 03:03:47;;;;;;;9.80;3.30;;;;;;;11.76;71.50;101745.22;5049709;28;20049;-79
2022/06/15 03:06:27;;;;;;;;;;;;;;;11.75;71.30;101743.47;5039261;28;20053;-78
2022/06/15 03:08:59;;;;;;;6.22;3.10;;;;;;;11.74;71.42;101744.41;5029930;28;19925;-77
2022/06/15 03:11:41;;;;;;;6.80;2.80;;;;;;;11.75;71.45;101746.09;5049601;28;20045;-78
2022/06/15 03:14:18;;;;;;;10.77;3.88;;;;;;;11.74;71.52;101746.16;5041617;28;20100;-79
2022/06/15 03:16:49;;;;;;;7.68;3.30;;;;;;;11.75;71.66;101742.63;5042902;28;20479;-79
2022/06/15 03:19:20;;;;;;;6.10;2.83;;;;;;;11.68;71.51;101741.88;5043978;28;20460;-81
2022/06/15 03:21:54;;;;;;;6.15;3.20;;;;;;;11.70;71.62;101750.63;5048651;28;20504;-80
2022/06/15 03:24:21;;;;;;;6.85;3.15;;;;;;;11.69;71.59;101750.69;5043780;28;20096;-79
2022/06/15 03:26:50;;;;;;;6.22;3.30;;;;;;;11.71;71.63;101751.50;5054206;28;20117;-79
2022/06/15 03:29:21;;;;;;;6.10;3.35;;;;;;;11.72;71.49;101746.19;5063750;28;20041;-79
2022/06/15 03:31:52;;;;;;;7.80;3.38;;;;;;;11.73;71.47;101747.06;5089533;28;20076;-79
2022/06/15 03:34:29;;;;;;;6.75;3.40;;;;;;;11.71;71.85;101741.81;5064714;28;20051;-79
2022/06/15 03:36:57;;;;;;;11.68;3.50;;;;;;;11.73;71.88;101749.69;5036500;28;20988;-78
2022/06/15 03:39:24;;;;;;;6.65;3.20;;;;;;;11.74;71.77;101747.03;5042735;28;20085;-76
2022/06/15 03:41:54;;;;;;;7.28;3.53;;;;;;;11.81;71.66;101748.63;5035658;28;20128;-78
2022/06/15 03:44:21;;;;;;;8.32;3.38;;;;;;;12.15;70.67;101752.34;5047784;28;20042;-78
2022/06/15 03:46:48;;;;;;;7.50;3.40;;;;;;;12.24;70.23;101751.28;5046863;28;20129;-77
2022/06/15 03:49:22;;;;;;;6.22;3.38;;;;;;;12.23;70.04;101752.19;5045213;28;20655;-77
2022/06/15 03:51:50;;;;;;;5.32;3.13;;;;;;;12.12;70.40;101755.06;5038990;28;20535;-75
2022/06/15 03:54:17;;;;;;;6.20;3.33;;;;;;;12.21;70.16;101764.56;5036595;28;20478;-77
2022/06/15 03:56:49;;;;;;;5.43;3.10;;;;;;;12.30;69.93;101751.13;5042814;28;20048;-77
2022/06/15 03:59:25;;;;;;;4.47;3.10;;;;;;;12.27;70.08;101753.84;5043095;28;20045;-74
2022/06/15 04:01:57;;;;;;;6.90;3.30;;;;;;;12.29;70.00;101752.03;5042224;28;20585;-75
2022/06/15 04:04:26;;;;;;;6.80;3.60;;;;;;;12.30;70.09;101752.91;5047248;28;20108;-75
2022/06/15 04:06:56;;;;;;;6.75;3.50;;;;;;;12.59;69.18;101757.50;5041970;28;20042;-76
2022/06/15 04:09:27;;;;;;;6.10;3.08;;;;;;;12.63;69.02;101758.28;5045072;28;20437;-77
2022/06/15 04:12:10;;;;;;;10.75;3.60;;;;;;;12.56;69.09;101747.03;5042096;28;20042;-76
2022/06/15 04:14:43;;;;;;;8.55;3.65;;;;;;;12.51;69.27;101755.06;5039299;28;20448;-76
2022/06/15 04:17:28;;;;;;;8.32;3.33;;;;;;;12.51;69.62;101751.53;5038057;28;20034;-76
2022/06/15 04:20:33;;;;;;;6.47;3.40;;;;;;;12.56;69.41;101754.97;5038055;28;20042;-75
2022/06/15 04:23:20;;;;;;;10.65;3.78;;;;;;;12.55;69.26;101753.22;5055936;28;20034;-76
2022/06/15 04:25:58;;;;;;;7.68;3.50;;;;;;;12.56;69.47;101761.09;5037185;28;20042;-76
2022/06/15 04:28:50;;;;;;;9.38;3.25;;;;;;;12.58;69.53;101758.41;5045505;28;20046;-76
2022/06/15 04:31:21;;;;;;;6.50;3.47;;;;;;;12.65;69.33;101753.84;5051526;28;20874;-77
2022/06/15 04:33:49;;;;;;;7.57;3.50;;;;;;;12.72;69.31;101758.94;5045221;28;20061;-77
2022/06/15 04:36:17;;;;;;;5.68;3.33;;;;;;;12.79;69.25;101745.56;5044149;28;20069;-75
2022/06/15 04:38:49;;;;;;;7.22;3.22;;;;;;;12.89;68.84;101742.66;5049158;28;20124;-77
2022/06/15 04:41:25;;;;;;;7.40;3.30;;;;;;;12.96;68.68;101753.06;5044440;28;20121;-75
2022/06/15 04:43:52;;;;;;;7.13;3.40;;;;;;;13.02;68.86;101745.84;5039467;28;20037;-73
2022/06/15 04:46:21;;;;;;;6.80;3.30;;;;;;;13.16;68.42;101752.56;5045145;28;20049;-73
2022/06/15 04:48:51;;;;;;;7.10;3.35;;;;;;;13.26;68.15;101754.06;5052209;28;20053;-77
2022/06/15 04:51:25;;;;;;;6.80;3.28;;;;;;;13.33;68.13;101754.75;5037262;28;20034;-77
2022/06/15 04:53:59;;;;;;;7.50;3.45;;;;;;;13.40;67.76;101755.47;5032552;28;20054;-76
2022/06/15 04:56:26;;;;;;;8.27;3.67;;;;;;;13.47;67.66;101747.31;5037221;28;20971;-76
2022/06/15 04:58:54;;;;;;;7.32;3.55;;;;;;;13.54;67.19;101747.13;5035683;28;20042;-77
2022/06/15 05:01:22;;;;;;;5.63;3.30;;;;;;;13.61;67.17;101746.06;5043542;28;20045;-79
2022/06/15 05:03:50;;;;;;;7.90;3.35;;;;;;;13.72;66.68;101753.69;5046005;28;20037;-77
2022/06/15 05:06:21;;;;;;;6.20;3.25;;;;;;;13.76;66.97;101750.91;5038869;28;20045;-79
2022/06/15 05:08:48;;;;;;;10.45;3.15;;;;;;;13.85;66.33;101748.91;5042999;28;20041;-77
2022/06/15 05:11:15;;;;;;;7.43;3.22;;;;;;;14.14;66.00;101756.00;5041719;28;20045;-75
2022/06/15 05:13:44;;;;;;;7.25;3.40;;;;;;;14.59;64.72;101758.13;5042606;28;20093;-75
2022/06/15 05:16:11;;;;;;;5.57;3.00;;;;;;;16.12;61.18;101757.19;5048371;28;20148;-77
2022/06/15 05:18:39;;;;;;;6.43;2.92;;;;;;;18.01;56.39;101753.59;5050691;28;20042;-76
2022/06/15 05:21:13;;;;;;;6.32;2.70;;;;;;;18.41;53.81;101748.16;5048848;28;20527;-72
2022/06/15 05:23:40;;;;;;;6.20;2.72;;;;;;;20.10;49.74;101756.31;5044828;28;20535;-73
2022/06/15 05:26:12;;;;;;;5.97;2.40;;;;;;;22.00;45.17;101744.13;5040473;28;20042;-71
2022/06/15 05:28:44;;;;;;;5.43;2.20;;;;;;;23.40;41.91;101745.59;5050321;28;20136;-77
2022/06/15 05:31:20;;;;;;;7.15;2.50;;;;;;;24.56;39.87;101744.44;5051020;28;20037;-73
2022/06/15 05:33:55;;;;;;;8.23;2.83;;;;;;;25.45;37.33;101741.25;5047244;28;20549;-77
2022/06/15 05:36:31;;;;;;;6.18;2.40;;;;;;;26.20;35.70;101737.88;5046339;28;20042;-72
2022/06/15 05:39:04;;;;;;;5.78;2.22;;;;;;;26.87;34.77;101743.13;5048334;28;20601;-71
2022/06/15 05:41:34;;;;;;;7.50;2.50;;;;;;;27.23;33.27;101735.50;5044600;28;20113;-73
2022/06/15 05:46:40;;;;;;;4.55;2.40;;;;;;;27.71;32.21;101728.63;5047737;28;20041;-73
2022/06/15 05:49:21;;;;;;;4.35;1.92;;;;;;;28.00;31.75;101737.81;5050602;28;20069;-72
2022/06/15 05:51:48;;;;;;;6.03;2.20;;;;;;;28.30;31.11;101736.03;5050545;28;20042;-76
2022/06/15 05:54:16;;;;;;;5.45;2.00;;;;;;;28.60;30.80;101737.72;5051206;28;20041;-78
2022/06/15 05:56:43;;;;;;;6.13;2.30;;;;;;;28.98;29.86;101737.84;5052536;28;20034;-77
2022/06/15 05:59:11;;;;;;;8.10;2.25;;;;;;;29.19;29.37;101740.38;5050310;28;20057;-78
2022/06/15 06:01:39;;;;;;;7.47;1.92;;;;;;;29.33;29.25;101732.78;5049150;28;20041;-75
2022/06/15 06:04:07;;;;;;;7.07;2.13;;;;;;;29.48;29.08;101744.88;5049486;28;20109;-78
2022/06/15 06:06:34;;;;;;;6.78;1.90;;;;;;;29.64;28.53;101735.22;5037598;28;20042;-76
2022/06/15 06:09:01;;;;;;;4.85;2.00;;;;;;;29.61;28.25;101739.09;5048709;28;20049;-76
2022/06/15 06:11:29;;;;;;;30.75;3.75;;;;;;;29.65;28.65;101729.66;5035935;28;20376;-77
2022/06/15 06:13:57;;;;;;;4.53;1.80;;;;;;;29.61;28.08;101732.81;5048237;28;20061;-78
2022/06/15 06:16:24;;;;;;;7.97;1.98;;;;;;;29.63;28.45;101738.94;5053427;28;20042;-78
2022/06/15 06:18:51;;;;;;;5.07;2.13;;;;;;;29.32;28.51;101731.91;5046716;28;20052;-77
2022/06/15 06:21:19;;;;;;;6.15;2.00;;;;;;;27.89;30.24;101731.53;5033559;28;20034;-78
2022/06/15 06:23:47;;;;;;;6.88;2.67;;;;;;;25.06;34.58;101741.53;5042429;28;20037;-78
2022/06/15 06:26:33;;;;;;;5.65;2.22;;;;;;;22.59;39.70;101745.69;5045920;28;20046;-78
2022/06/15 06:29:00;;;;;;;3.67;1.88;;;;;;;21.20;43.14;101749.13;5033146;28;20504;-79
2022/06/15 06:31:28;;;;;;;6.65;2.58;;;;;;;20.40;44.99;101743.97;5033626;28;20048;-77
2022/06/15 06:33:56;;;;;;;7.72;2.47;;;;;;;19.79;46.41;101746.44;5032627;28;20508;-79
2022/06/15 06:36:41;;;;;;;6.13;2.30;;;;;;;19.42;48.29;101748.44;5044398;28;20040;-78
2022/06/15 06:39:20;;;;;;;5.07;2.53;;;;;;;19.11;49.45;101756.25;5052894;28;20077;-78
2022/06/15 06:41:47;;;;;;;4.55;2.47;;;;;;;18.98;50.35;101757.81;5052397;28;20037;-79
2022/06/15 06:44:14;;;;;;;6.70;2.42;;;;;;;18.87;50.50;101751.19;5044073;28;20041;-80
2022/06/15 06:46:46;;;;;;;9.80;2.33;;;;;;;18.88;50.62;101760.94;5053649;28;20040;-79
2022/06/15 06:49:15;;;;;;;5.57;2.65;;;;;;;18.87;50.06;101761.88;5052386;28;20045;-79
2022/06/15 06:51:44;;;;;;;5.75;2.50;;;;;;;18.78;50.28;101755.19;5049216;28;20049;-80
2022/06/15 06:54:18;;;;;;;9.73;3.10;;;;;;;18.74;50.68;101758.97;5033459;28;20046;-80
2022/06/15 06:56:46;;;;;;;8.15;2.70;;;;;;;18.74;51.01;101764.31;5048554;28;20042;-80
2022/06/15 06:59:16;;;;;;;6.40;2.50;;;;;;;18.75;51.19;101770.53;5050892;28;20530;-79
2022/06/15 07:01:46;;;;;;;9.70;2.80;;;;;;;18.80;51.35;101771.13;5048628;28;20040;-78
2022/06/15 07:04:16;;;;;;;8.48;2.35;;;;;;;18.91;51.76;101776.81;5052178;28;20037;-78
2022/06/15 07:06:44;;;;;;;8.80;2.85;;;;;;;18.97;51.89;101778.34;5048081;28;20507;-77
2022/06/15 07:09:13;;;;;;;7.53;2.50;;;;;;;19.08;50.88;101773.31;5034040;28;20125;-79
2022/06/15 07:11:43;;;;;;;8.00;2.78;;;;;;;19.12;51.37;101779.34;5033274;28;20587;-79
2022/06/15 07:14:12;;;;;;;5.75;2.58;;;;;;;19.23;50.87;101779.66;5032493;28;20065;-80
2022/06/15 07:16:42;;;;;;;6.40;2.20;;;;;;;19.32;50.53;101778.34;5032654;28;20127;-80
2022/06/15 07:19:11;;;;;;;7.38;2.60;;;;;;;19.40;50.75;101775.22;5032748;28;20068;-80
2022/06/15 07:21:40;;;;;;;4.55;2.20;;;;;;;19.53;50.35;101776.31;5035233;28;20048;-79
2022/06/15 07:24:08;;;;;;;7.28;2.40;;;;;;;19.66;50.30;101781.03;5032372;28;20038;-75
2022/06/15 07:26:42;;;;;;;5.43;2.38;;;;;;;19.77;49.60;101778.63;5039727;28;20037;-77
2022/06/15 07:29:13;;;;;;;8.75;2.10;;;;;;;19.86;49.64;101778.16;5052282;28;20069;-77
2022/06/15 07:31:46;;;;;;;6.45;2.30;;;;;;;19.95;48.92;101778.59;5052425;28;20034;-75
2022/06/15 07:34:14;;;;;;;9.82;2.10;;;;;;;20.09;48.17;101783.16;5051477;28;20084;-76
2022/06/15 07:36:46;;;;;;;5.20;1.90;;;;;;;20.09;48.38;101786.72;5034370;28;20475;-75
2022/06/15 07:39:29;;;;;;;5.10;2.05;;;;;;;20.17;48.11;101784.47;5037687;28;20085;-77
2022/06/15 07:42:05;;;;;;;6.65;1.98;;;;;;;20.40;46.60;101784.97;5052361;28;20073;-75
2022/06/15 07:44:34;;;;;;;6.18;2.20;;;;;;;20.39;46.33;101785.94;5051869;28;20046;-75
2022/06/15 07:49:55;;;;;;;5.55;2.10;;;;;;;20.29;47.20;101785.59;5037653;28;20121;-75
2022/06/15 07:52:46;;;;;;;7.28;2.10;;;;;;;20.35;46.79;101781.72;5033922;28;20061;-76
2022/06/15 07:55:19;;;;;;;7.90;2.30;;;;;;;20.44;47.18;101783.00;5032069;28;20038;-76
2022/06/15 07:57:47;;;;;;;8.07;2.13;;;;;;;20.62;45.99;101778.38;5037213;28;20064;-77
2022/06/15 08:00:16;;;;;;;7.18;2.00;;;;;;;20.67;46.00;101781.66;5051863;28;20136;-76
2022/06/15 08:02:43;;;;;;;5.70;1.70;;;;;;;20.75;45.07;101773.22;5050257;28;20050;-78
2022/06/15 08:05:11;;;;;;;4.45;1.65;;;;;;;20.85;44.48;101785.13;5040154;28;20041;-76
2022/06/15 08:07:39;;;;;;;5.53;2.08;;;;;;;20.90;44.03;101788.38;5048018;28;20048;-77
2022/06/15 08:10:07;;;;;;;6.68;1.70;;;;;;;20.97;43.90;101771.94;5050296;28;20045;-76
2022/06/15 08:12:34;;;;;;;5.45;1.92;;;;;;;20.92;44.47;101780.25;5048069;28;20507;-75
2022/06/15 08:15:04;;;;;;;7.55;1.95;;;;;;;20.97;44.87;101777.28;5032003;28;20534;-78
2022/06/15 08:17:40;;;;;;;5.32;2.20;;;;;;;21.12;44.51;101778.19;5032234;28;20044;-78
2022/06/15 08:20:22;;;;;;;6.07;2.20;;;;;;;21.30;42.98;101774.41;5049987;28;20045;-77
2022/06/15 08:22:56;;;;;;;7.00;2.28;;;;;;;21.40;42.14;101785.41;5039184;28;20598;-79
2022/06/15 08:25:39;;;;;;;6.47;1.90;;;;;;;21.28;42.17;101779.00;5032778;28;20046;-78
2022/06/15 08:28:09;;;;;;;7.60;2.00;;;;;;;21.30;43.28;101786.94;5031269;28;20100;-78
2022/06/15 08:30:37;;;;;;;8.43;1.95;;;;;;;21.48;41.82;101783.13;5031614;28;20048;-77
2022/06/15 08:33:07;;;;;;;6.35;2.20;;;;;;;21.41;41.78;101782.66;5032915;28;20042;-78
2022/06/15 08:35:36;;;;;;;5.65;2.15;;;;;;;21.41;42.49;101773.75;5032267;28;20038;-78
2022/06/15 08:38:06;;;;;;;5.90;2.20;;;;;;;21.45;42.22;101775.28;5040892;28;20061;-77
2022/06/15 08:41:29;;;;;;;5.32;2.10;;;;;;;21.60;42.52;101775.31;5031417;28;20046;-78
2022/06/15 08:44:07;;;;;;;6.85;2.20;;;;;;;21.80;40.57;101777.59;5031411;28;20312;-75
2022/06/15 08:47:08;;;;;;;5.57;2.03;;;;;;;21.73;41.76;101765.53;5031311;28;20044;-77
2022/06/15 08:49:59;;;;;;;7.15;1.70;;;;;;;21.96;40.62;101776.66;5031516;28;20042;-76
2022/06/15 08:53:02;;;;;;;4.55;1.77;;;;;;;21.98;40.28;101763.97;5041108;28;20100;-77
2022/06/15 08:55:41;;;;;;;4.68;1.60;;;;;;;22.00;40.26;101770.09;5034391;28;20077;-77
2022/06/15 08:58:20;;;;;;;8.80;1.90;;;;;;;22.00;40.89;101770.09;5048310;28;20046;-79
2022/06/15 09:00:54;;;;;;;5.35;1.90;;;;;;;22.09;40.86;101760.59;5054354;28;20506;-77
2022/06/15 09:03:48;;;;;;;7.32;2.13;;;;;;;22.22;40.13;101769.59;5054725;28;20057;-77
2022/06/15 09:06:47;;;;;;;;;;;;;;;22.21;40.76;101772.34;5043985;28;20045;-78
2022/06/15 09:09:40;;;;;;;5.38;2.20;;;;;;;22.39;40.37;101778.34;5033273;28;19931;-79
2022/06/15 09:15:41;;;;;;;7.28;2.25;;;;;;;22.42;40.03;101772.81;5053996;28;20062;-77
2022/06/15 09:18:20;;;;;;;12.27;2.22;;;;;;;22.57;39.75;101779.00;5045765;28;20120;-78
2022/06/15 09:21:02;;;;;;;4.10;2.05;;;;;;;22.68;39.96;101779.16;5046498;28;20147;-77
2022/06/15 09:23:55;;;;;;;4.78;2.17;;;;;;;22.83;39.43;101774.56;5038727;28;20577;-77
2022/06/15 09:26:30;;;;;;;4.57;2.00;;;;;;;23.03;38.36;101767.81;5040200;28;20577;-79
2022/06/15 09:29:17;;;;;;;4.95;1.95;;;;;;;23.05;38.03;101778.44;5050309;28;20037;-79
2022/06/15 09:32:00;;;;;;;5.57;2.10;;;;;;;22.98;38.22;101772.66;5054216;28;20492;-81
2022/06/15 09:35:05;;;;;;;7.10;2.10;;;;;;;22.93;39.00;101769.41;5054150;28;20139;-77
2022/06/15 09:37:36;;;;;;;3.88;1.90;;;;;;;23.09;37.97;101767.41;5034003;28;20088;-79
2022/06/15 09:40:05;;;;;;;5.93;2.33;;;;;;;22.99;38.34;101766.31;5033881;28;20050;-79
2022/06/15 09:43:09;;;;;;;7.50;2.30;;;;;;;23.09;37.70;101758.47;5034531;28;20073;-77
2022/06/15 09:46:05;;;;;;;5.83;2.20;;;;;;;23.04;38.00;101753.41;5042265;28;20076;-76
2022/06/15 09:49:09;;;;;;;6.78;2.38;;;;;;;23.23;37.63;101754.84;5053814;28;20135;-78
2022/06/15 09:52:02;;;;;;;5.03;2.08;;;;;;;23.35;36.50;101758.53;5044113;28;20046;-79
2022/06/15 09:54:50;;;;;;;7.38;2.38;;;;;;;23.30;36.83;101757.97;5053583;28;20562;-79
2022/06/15 09:57:19;;;;;;;6.60;2.30;;;;;;;23.23;36.96;101761.09;5055148;28;20068;-78
2022/06/15 09:59:47;;;;;;;6.57;2.28;;;;;;;23.14;37.33;101755.47;5051511;28;20058;-78
2022/06/15 10:02:27;;;;;;;4.97;1.80;;;;;;;23.33;37.66;101753.22;5036090;28;20094;-78
2022/06/15 10:04:57;;;;;;;5.30;2.00;;;;;;;23.39;37.16;101755.50;5036475;28;20505;-79
2022/06/15 10:07:35;;;;;;;5.28;2.00;;;;;;;23.41;37.79;101744.63;5053824;28;20041;-78
2022/06/15 10:10:27;;;;;;;5.88;2.05;;;;;;;23.59;36.94;101750.53;5054226;28;20502;-79
2022/06/15 10:13:03;;;;;;;5.70;2.00;;;;;;;23.69;38.09;101748.03;5051573;28;20124;-79
2022/06/15 10:15:52;;;;;;;7.65;2.05;;;;;;;23.84;36.86;101746.94;5048288;28;20046;-74
2022/06/15 10:18:46;;;;;;;7.40;2.13;;;;;;;23.94;36.27;101736.34;5034706;28;20069;-77
2022/06/15 10:21:13;;;;;;;5.03;1.92;;;;;;;24.03;35.77;101738.41;5050764;28;20464;-75
2022/06/15 10:24:17;;;;;;;5.85;2.45;;;;;;;23.95;36.95;101737.25;5047036;28;20041;-76
2022/06/15 10:26:48;;;;;;;5.97;2.20;;;;;;;24.06;36.16;101739.16;5042981;28;20560;-78
2022/06/15 10:29:15;;;;;;;5.72;1.85;;;;;;;24.19;36.18;101740.81;5053595;28;20251;-78
2022/06/15 10:32:03;;;;;;;7.78;2.10;;;;;;;24.22;35.54;101744.25;5053650;28;20117;-80
2022/06/15 10:35:16;;;;;;;6.88;1.90;;;;;;;24.23;36.63;101746.84;5041659;28;20076;-79
2022/06/15 10:37:52;;;;;;;6.57;1.80;;;;;;;24.35;35.28;101742.38;5033972;28;20046;-77
2022/06/15 10:40:29;;;;;;;6.50;2.30;;;;;;;24.24;35.34;101731.53;5046166;28;20046;-78
2022/06/15 10:43:14;;;;;;;6.55;1.90;;;;;;;24.15;36.13;101731.25;5043343;28;20120;-76
2022/06/15 10:45:55;;;;;;;7.32;1.80;;;;;;;24.30;35.77;101733.78;5050313;28;20084;-78
2022/06/15 10:48:42;;;;;;;8.05;1.77;;;;;;;24.37;36.08;101735.03;5050114;28;20518;-76
2022/06/15 10:51:27;;;;;;;6.75;2.05;;;;;;;24.43;36.09;101731.88;5033117;28;20052;-76
2022/06/15 10:54:23;;;;;;;6.45;2.10;;;;;;;24.65;35.17;101725.72;5033303;28;20092;-77
2022/06/15 11:02:45;;;;;;;4.40;1.73;;;;;;;25.22;33.91;101725.00;5039602;28;20096;-76
2022/06/15 11:05:18;;;;;;;5.28;2.08;;;;;;;25.16;34.13;101720.94;5033965;28;20499;-76
2022/06/15 11:07:59;;;;;;;7.03;2.05;;;;;;;25.05;35.42;101716.41;5040735;28;20070;-77
2022/06/15 11:10:32;;;;;;;5.63;1.80;;;;;;;25.08;34.42;101720.69;5051761;28;20045;-79
2022/06/15 11:13:05;;;;;;;4.45;2.00;;;;;;;25.12;34.56;101724.88;5042938;28;20499;-77
2022/06/15 11:18:37;;;;;;;10.57;2.15;;;;;;;25.31;36.56;101726.97;5041513;28;20046;-77
2022/06/15 11:21:12;;;;;;;6.68;1.85;;;;;;;25.53;34.20;101722.59;5039766;28;20510;-77
2022/06/15 11:23:57;;;;;;;7.60;1.90;;;;;;;25.63;33.88;101710.06;5050479;28;20041;-77
2022/06/15 11:26:56;;;;;;;4.47;1.80;;;;;;;25.66;32.81;101711.66;5038852;28;20041;-77
2022/06/15 11:29:50;;;;;;;7.00;1.80;;;;;;;25.37;33.49;101713.00;5032755;28;20042;-79
2022/06/15 11:32:45;;;;;;;5.93;2.20;;;;;;;25.32;33.40;101706.25;5035850;28;20412;-79
2022/06/15 11:35:12;;;;;;;6.15;1.70;;;;;;;25.32;34.02;101706.25;5052188;28;20041;-78
2022/06/15 11:37:59;;;;;;;11.32;1.92;;;;;;;25.35;34.01;101708.69;5042528;28;20038;-80
2022/06/15 11:40:49;;;;;;;3.97;1.85;;;;;;;25.45;34.60;101700.75;5052264;28;20046;-78
2022/06/15 11:43:27;;;;;;;7.75;2.15;;;;;;;25.67;33.26;101695.34;5052508;28;20513;-78
2022/06/15 11:46:41;;;;;;;7.75;1.83;;;;;;;25.57;34.44;101691.69;5041501;28;20041;-78
2022/06/15 11:49:33;;;;;;;5.05;2.03;;;;;;;25.67;33.76;101695.34;5052559;28;20041;-78
2022/06/15 11:52:38;;;;;;;4.68;1.80;;;;;;;25.73;34.26;101702.94;5052609;28;20076;-78
2022/06/15 11:55:43;;;;;;;8.00;2.10;;;;;;;25.91;33.26;101701.56;5052560;28;20088;-76
2022/06/15 11:58:23;;;;;;;5.05;1.67;;;;;;;26.09;32.78;101700.06;5033288;28;20068;-79
2022/06/15 12:01:23;;;;;;;4.53;1.80;;;;;;;25.99;33.47;101697.25;5036977;28;20518;-77
2022/06/15 12:05:00;;;;;;;7.13;1.80;;;;;;;25.98;33.27;101691.97;5050990;28;20038;-78
2022/06/15 12:07:49;;;;;;;9.10;2.00;;;;;;;26.14;34.54;101689.75;4974841;28;20055;-78
2022/06/15 12:10:34;;;;;;;3.47;1.70;;;;;;;26.58;31.92;101688.81;4972206;28;20056;-78
2022/06/15 12:13:50;;;;;;;4.65;1.40;;;;;;;26.38;32.36;101682.41;5013335;28;20082;-77
2022/06/15 12:16:36;;;;;;;4.82;1.30;;;;;;;26.40;32.42;101691.25;5033803;28;20140;-76
2022/06/15 12:19:23;;;;;;;23.80;3.20;;;;;;;26.61;34.05;101685.84;5031722;28;20099;-74
2022/06/15 12:21:58;;;;;;;7.68;1.85;;;;;;;26.89;33.73;101683.47;5035631;28;20109;-73
2022/06/15 12:24:36;;;;;;;7.13;1.80;;;;;;;26.99;32.67;101688.97;5031354;28;20587;-74
2022/06/15 12:27:39;;;;;;;4.18;1.50;;;;;;;27.00;31.93;101688.81;5042876;28;20045;-76
2022/06/15 12:30:26;;;;;;;4.22;1.65;;;;;;;27.00;31.28;101688.81;5050211;28;20503;-77
2022/06/15 12:33:22;;;;;;;3.35;1.75;;;;;;;26.85;31.41;101680.19;5042408;28;20068;-76